createdAt,value
2018-10-09T00:00:50.563Z,14.33
2018-10-09T00:15:51.699Z,17.90
2018-10-09T00:30:50.621Z,17.60
2018-10-09T00:45:50.563Z,16.10
2018-10-09T01:00:50.736Z,16.32
2018-10-09T01:15:51.069Z,16.87
2018-10-09T01:30:59.520Z,16.62
2018-10-09T01:45:51.705Z,16.62
2018-10-09T02:00:50.975Z,17.35
2018-10-09T02:15:51.767Z,17.45
2018-10-09T02:30:51.042Z,16.40
2018-10-09T02:45:49.797Z,16.87
2018-10-09T03:00:51.250Z,15.43
2018-10-09T03:15:51.048Z,14.38
2018-10-09T03:30:50.476Z,15.78
2018-10-09T03:45:50.425Z,15.65
2018-10-09T04:00:50.624Z,17.23
2018-10-09T04:15:51.068Z,17.67
2018-10-09T04:30:51.234Z,21.68
2018-10-09T04:45:51.154Z,20.05
2018-10-09T05:00:50.974Z,20.27
2018-10-09T05:15:50.866Z,23.25
2018-10-09T05:30:51.738Z,24.55
2018-10-09T05:45:50.704Z,26.45
2018-10-09T06:00:51.183Z,24.00
2018-10-09T06:15:50.658Z,23.77
2018-10-09T06:30:50.609Z,23.73
2018-10-09T06:45:52.425Z,16.82
2018-10-09T07:00:52.507Z,11.10
2018-10-09T07:15:50.402Z,11.97
2018-10-09T07:30:50.864Z,12.18
2018-10-09T07:45:50.857Z,11.05
2018-10-09T08:00:56.728Z,8.40
2018-10-09T08:15:50.710Z,7.45
2018-10-09T08:30:51.040Z,5.55
2018-10-09T08:45:51.055Z,5.67
2018-10-09T09:00:53.078Z,5.67
2018-10-09T09:15:50.990Z,6.20
2018-10-09T09:30:50.346Z,5.08
2018-10-09T09:45:49.900Z,5.47
2018-10-09T10:00:57.582Z,5.42
2018-10-09T10:15:51.386Z,5.50
2018-10-09T10:30:50.642Z,5.92
2018-10-09T10:45:50.572Z,4.87
2018-10-09T11:00:50.581Z,5.37
2018-10-09T11:15:53.498Z,5.30
2018-10-09T11:30:51.003Z,5.72
2018-10-09T11:45:59.258Z,4.50
2018-10-09T12:00:52.580Z,4.30
2018-10-09T12:15:50.866Z,4.92
2018-10-09T12:30:51.492Z,4.90
2018-10-09T12:45:51.334Z,3.65
2018-10-09T13:00:51.251Z,4.60
2018-10-09T13:15:51.086Z,4.00
2018-10-09T13:30:50.554Z,3.58
2018-10-09T13:45:50.397Z,4.15
2018-10-09T14:00:50.495Z,3.27
2018-10-09T14:15:53.290Z,4.05
2018-10-09T14:30:48.937Z,3.87
2018-10-09T14:45:50.568Z,3.58
2018-10-09T15:00:50.683Z,4.03
2018-10-09T15:15:50.462Z,3.47
2018-10-09T15:30:51.088Z,4.70
2018-10-09T15:45:51.661Z,4.80
2018-10-09T16:00:52.529Z,5.05
2018-10-09T16:15:49.738Z,7.87
2018-10-09T16:30:48.983Z,7.08
2018-10-09T16:45:48.931Z,6.95
2018-10-09T17:00:50.138Z,8.20
2018-10-09T17:15:50.083Z,5.72
2018-10-09T17:30:50.488Z,7.72
2018-10-09T17:45:50.335Z,9.78
2018-10-09T18:00:50.571Z,17.10
2018-10-09T18:15:49.858Z,12.55
2018-10-09T18:30:50.679Z,10.18
2018-10-09T18:45:50.699Z,11.90
2018-10-09T19:00:50.851Z,10.55
2018-10-09T19:15:50.660Z,11.97
2018-10-09T19:30:50.263Z,12.18
2018-10-09T19:45:51.053Z,10.80
2018-10-09T20:00:51.326Z,9.73
2018-10-09T20:15:51.428Z,10.05
2018-10-09T20:30:49.919Z,9.25
2018-10-09T20:45:50.686Z,10.00
2018-10-09T21:00:50.384Z,9.98
2018-10-09T21:15:50.139Z,10.32
2018-10-09T21:30:50.513Z,9.63
2018-10-09T21:45:50.500Z,10.55
2018-10-09T22:00:57.745Z,9.38
2018-10-09T22:15:50.446Z,12.13
2018-10-09T22:30:50.813Z,10.45
2018-10-09T22:45:50.774Z,11.55
2018-10-09T23:00:51.421Z,17.57
2018-10-09T23:15:50.724Z,13.35
2018-10-09T23:30:51.088Z,12.55
2018-10-09T23:45:50.962Z,13.00
